sensor_id;sensor_type;location;lat;lon;timestamp;P1;durP1;ratioP1;P2;durP2;ratioP2
30048;SDS011;16879;50.852;15.602;2022-11-15T16:47:23;111.20;;;65.93;;
30048;SDS011;16879;50.852;15.602;2022-11-15T16:49:49;110.18;;;62.53;;
30048;SDS011;16879;50.852;15.602;2022-11-15T16:52:16;112.80;;;66.60;;
30048;SDS011;16879;50.852;15.602;2022-11-15T16:54:41;105.57;;;61.25;;
30048;SDS011;16879;50.852;15.602;2022-11-15T16:57:09;109.60;;;63.42;;
30048;SDS011;16879;50.852;15.602;2022-11-15T16:59:35;104.95;;;60.15;;
30048;SDS011;16879;50.852;15.602;2022-11-15T17:02:01;94.68;;;57.13;;
30048;SDS011;16879;50.852;15.602;2022-11-15T17:04:26;91.38;;;54.22;;
30048;SDS011;16879;50.852;15.602;2022-11-15T17:06:57;84.22;;;52.50;;
30048;SDS011;16879;50.852;15.602;2022-11-15T17:09:23;89.53;;;51.55;;
30048;SDS011;16879;50.852;15.602;2022-11-15T17:11:49;84.63;;;55.75;;
30048;SDS011;16879;50.852;15.602;2022-11-15T17:14:17;83.35;;;47.92;;
30048;SDS011;16879;50.852;15.602;2022-11-15T17:16:43;85.60;;;51.78;;
30048;SDS011;16879;50.852;15.602;2022-11-15T17:19:11;87.78;;;49.53;;
30048;SDS011;16879;50.852;15.602;2022-11-15T17:21:41;100.18;;;60.88;;
30048;SDS011;16879;50.852;15.602;2022-11-15T17:24:08;100.13;;;62.40;;
30048;SDS011;16879;50.852;15.602;2022-11-15T17:26:34;111.45;;;64.07;;
30048;SDS011;16879;50.852;15.602;2022-11-15T17:29:00;104.32;;;63.42;;
30048;SDS011;16879;50.852;15.602;2022-11-15T17:31:28;110.95;;;65.55;;
30048;SDS011;16879;50.852;15.602;2022-11-15T17:33:57;141.43;;;76.03;;
30048;SDS011;16879;50.852;15.602;2022-11-15T17:36:23;118.15;;;64.68;;
30048;SDS011;16879;50.852;15.602;2022-11-15T17:38:49;120.38;;;68.18;;
30048;SDS011;16879;50.852;15.602;2022-11-15T17:41:16;143.55;;;83.53;;
30048;SDS011;16879;50.852;15.602;2022-11-15T17:43:45;129.88;;;74.78;;
30048;SDS011;16879;50.852;15.602;2022-11-15T17:46:20;106.97;;;61.90;;
30048;SDS011;16879;50.852;15.602;2022-11-15T17:48:46;113.30;;;64.95;;
30048;SDS011;16879;50.852;15.602;2022-11-15T17:51:14;102.07;;;62.08;;
30048;SDS011;16879;50.852;15.602;2022-11-15T17:53:42;107.45;;;63.83;;
30048;SDS011;16879;50.852;15.602;2022-11-15T17:56:10;104.70;;;62.80;;
30048;SDS011;16879;50.852;15.602;2022-11-15T17:58:36;92.05;;;57.58;;
30048;SDS011;16879;50.852;15.602;2022-11-15T18:01:16;89.43;;;53.40;;
30048;SDS011;16879;50.852;15.602;2022-11-15T18:03:44;87.93;;;53.25;;
30048;SDS011;16879;50.852;15.602;2022-11-15T18:06:10;81.72;;;52.97;;
30048;SDS011;16879;50.852;15.602;2022-11-15T18:08:38;90.60;;;57.42;;
30048;SDS011;16879;50.852;15.602;2022-11-15T18:11:05;105.65;;;62.38;;
30048;SDS011;16879;50.852;15.602;2022-11-15T18:13:32;88.05;;;51.17;;
30048;SDS011;16879;50.852;15.602;2022-11-15T18:15:58;95.10;;;57.33;;
30048;SDS011;16879;50.852;15.602;2022-11-15T18:18:31;127.82;;;70.53;;
30048;SDS011;16879;50.852;15.602;2022-11-15T18:21:01;123.07;;;74.20;;
30048;SDS011;16879;50.852;15.602;2022-11-15T18:23:28;156.82;;;90.68;;
30048;SDS011;16879;50.852;15.602;2022-11-15T18:25:54;154.88;;;88.50;;
30048;SDS011;16879;50.852;15.602;2022-11-15T18:28:20;207.02;;;116.93;;
30048;SDS011;16879;50.852;15.602;2022-11-15T18:30:46;154.27;;;92.13;;
30048;SDS011;16879;50.852;15.602;2022-11-15T18:33:13;150.15;;;84.90;;
30048;SDS011;16879;50.852;15.602;2022-11-15T18:35:39;140.85;;;85.22;;
30048;SDS011;16879;50.852;15.602;2022-11-15T18:38:05;173.40;;;99.80;;
30048;SDS011;16879;50.852;15.602;2022-11-15T18:40:31;171.30;;;96.03;;
30048;SDS011;16879;50.852;15.602;2022-11-15T18:42:57;184.23;;;103.40;;
30048;SDS011;16879;50.852;15.602;2022-11-15T18:45:23;163.73;;;99.35;;
30048;SDS011;16879;50.852;15.602;2022-11-15T18:47:49;289.80;;;154.07;;
30048;SDS011;16879;50.852;15.602;2022-11-15T18:50:15;334.50;;;172.13;;
30048;SDS011;16879;50.852;15.602;2022-11-15T18:52:41;311.42;;;182.57;;
30048;SDS011;16879;50.852;15.602;2022-11-15T18:55:07;276.17;;;150.02;;
30048;SDS011;16879;50.852;15.602;2022-11-15T18:57:35;227.98;;;121.93;;
30048;SDS011;16879;50.852;15.602;2022-11-15T19:00:01;225.07;;;126.30;;
30048;SDS011;16879;50.852;15.602;2022-11-15T19:02:28;222.65;;;121.03;;
30048;SDS011;16879;50.852;15.602;2022-11-15T19:04:54;210.18;;;120.60;;
30048;SDS011;16879;50.852;15.602;2022-11-15T19:07:20;209.80;;;122.85;;
30048;SDS011;16879;50.852;15.602;2022-11-15T19:09:46;198.32;;;116.00;;
30048;SDS011;16879;50.852;15.602;2022-11-15T19:12:12;191.02;;;111.20;;
30048;SDS011;16879;50.852;15.602;2022-11-15T19:14:38;193.95;;;107.85;;
30048;SDS011;16879;50.852;15.602;2022-11-15T19:17:04;182.32;;;103.00;;
30048;SDS011;16879;50.852;15.602;2022-11-15T19:19:30;207.63;;;121.90;;
30048;SDS011;16879;50.852;15.602;2022-11-15T19:21:57;196.27;;;113.43;;
30048;SDS011;16879;50.852;15.602;2022-11-15T19:24:23;217.90;;;124.97;;
30048;SDS011;16879;50.852;15.602;2022-11-15T19:26:51;186.63;;;111.63;;
30048;SDS011;16879;50.852;15.602;2022-11-15T19:29:17;193.20;;;110.97;;
30048;SDS011;16879;50.852;15.602;2022-11-15T19:31:43;183.68;;;108.82;;
30048;SDS011;16879;50.852;15.602;2022-11-15T19:34:09;167.32;;;97.97;;
30048;SDS011;16879;50.852;15.602;2022-11-15T19:36:42;148.52;;;95.57;;
30048;SDS011;16879;50.852;15.602;2022-11-15T19:39:09;166.50;;;102.10;;
30048;SDS011;16879;50.852;15.602;2022-11-15T19:41:38;168.05;;;98.15;;
30048;SDS011;16879;50.852;15.602;2022-11-15T19:44:06;179.60;;;104.55;;
30048;SDS011;16879;50.852;15.602;2022-11-15T19:46:33;167.30;;;99.85;;
30048;SDS011;16879;50.852;15.602;2022-11-15T19:48:59;157.65;;;96.72;;
30048;SDS011;16879;50.852;15.602;2022-11-15T19:51:27;177.43;;;100.95;;
30048;SDS011;16879;50.852;15.602;2022-11-15T19:53:56;161.85;;;96.82;;
30048;SDS011;16879;50.852;15.602;2022-11-15T19:56:23;149.82;;;91.10;;
30048;SDS011;16879;50.852;15.602;2022-11-15T19:58:52;154.23;;;91.68;;
30048;SDS011;16879;50.852;15.602;2022-11-15T20:01:23;167.63;;;94.28;;
30048;SDS011;16879;50.852;15.602;2022-11-15T20:03:49;157.80;;;89.40;;
30048;SDS011;16879;50.852;15.602;2022-11-15T20:06:22;159.55;;;89.35;;
30048;SDS011;16879;50.852;15.602;2022-11-15T20:08:48;202.60;;;108.75;;
30048;SDS011;16879;50.852;15.602;2022-11-15T20:11:15;156.93;;;92.82;;
30048;SDS011;16879;50.852;15.602;2022-11-15T20:13:41;140.63;;;84.70;;
30048;SDS011;16879;50.852;15.602;2022-11-15T20:16:08;172.13;;;97.75;;
30048;SDS011;16879;50.852;15.602;2022-11-15T20:18:35;156.05;;;86.88;;
30048;SDS011;16879;50.852;15.602;2022-11-15T20:21:01;138.93;;;84.55;;
30048;SDS011;16879;50.852;15.602;2022-11-15T20:23:33;137.00;;;82.15;;
30048;SDS011;16879;50.852;15.602;2022-11-15T20:25:59;150.68;;;91.57;;
30048;SDS011;16879;50.852;15.602;2022-11-15T20:28:26;147.48;;;87.45;;
30048;SDS011;16879;50.852;15.602;2022-11-15T20:30:56;131.77;;;77.13;;
30048;SDS011;16879;50.852;15.602;2022-11-15T20:33:28;129.93;;;80.57;;
30048;SDS011;16879;50.852;15.602;2022-11-15T20:35:57;118.57;;;72.45;;
30048;SDS011;16879;50.852;15.602;2022-11-15T20:38:24;154.30;;;88.18;;
30048;SDS011;16879;50.852;15.602;2022-11-15T20:40:53;141.38;;;82.97;;
30048;SDS011;16879;50.852;15.602;2022-11-15T20:43:19;164.23;;;96.28;;
30048;SDS011;16879;50.852;15.602;2022-11-15T20:45:46;172.27;;;101.68;;
30048;SDS011;16879;50.852;15.602;2022-11-15T20:48:15;169.80;;;99.35;;
30048;SDS011;16879;50.852;15.602;2022-11-15T20:50:43;187.20;;;102.68;;
30048;SDS011;16879;50.852;15.602;2022-11-15T20:53:10;154.88;;;92.55;;
30048;SDS011;16879;50.852;15.602;2022-11-15T20:55:40;157.40;;;92.47;;
30048;SDS011;16879;50.852;15.602;2022-11-15T20:58:07;152.85;;;94.75;;
30048;SDS011;16879;50.852;15.602;2022-11-15T21:00:34;169.70;;;94.45;;
30048;SDS011;16879;50.852;15.602;2022-11-15T21:03:01;160.93;;;96.35;;
30048;SDS011;16879;50.852;15.602;2022-11-15T21:05:31;161.27;;;90.30;;
30048;SDS011;16879;50.852;15.602;2022-11-15T21:08:03;166.82;;;96.65;;
30048;SDS011;16879;50.852;15.602;2022-11-15T21:10:30;160.88;;;95.90;;
30048;SDS011;16879;50.852;15.602;2022-11-15T21:13:15;141.93;;;79.82;;
30048;SDS011;16879;50.852;15.602;2022-11-15T21:15:41;144.85;;;83.57;;
30048;SDS011;16879;50.852;15.602;2022-11-15T21:18:07;123.80;;;75.43;;
30048;SDS011;16879;50.852;15.602;2022-11-15T21:20:33;161.63;;;92.07;;
30048;SDS011;16879;50.852;15.602;2022-11-15T21:22:58;172.23;;;97.55;;
30048;SDS011;16879;50.852;15.602;2022-11-15T21:25:24;161.70;;;87.20;;
30048;SDS011;16879;50.852;15.602;2022-11-15T21:27:51;160.20;;;86.28;;
30048;SDS011;16879;50.852;15.602;2022-11-15T21:30:17;125.28;;;78.70;;
30048;SDS011;16879;50.852;15.602;2022-11-15T21:32:44;139.57;;;78.18;;
30048;SDS011;16879;50.852;15.602;2022-11-15T21:35:10;166.93;;;88.43;;
30048;SDS011;16879;50.852;15.602;2022-11-15T21:37:37;147.48;;;78.13;;
30048;SDS011;16879;50.852;15.602;2022-11-15T21:40:04;194.13;;;97.53;;
30048;SDS011;16879;50.852;15.602;2022-11-15T21:42:30;192.57;;;102.07;;
30048;SDS011;16879;50.852;15.602;2022-11-15T21:44:56;190.43;;;103.45;;
30048;SDS011;16879;50.852;15.602;2022-11-15T21:47:23;176.95;;;95.63;;
30048;SDS011;16879;50.852;15.602;2022-11-15T21:49:49;150.07;;;84.00;;
30048;SDS011;16879;50.852;15.602;2022-11-15T21:52:15;135.75;;;76.72;;
30048;SDS011;16879;50.852;15.602;2022-11-15T21:54:41;159.90;;;91.78;;
30048;SDS011;16879;50.852;15.602;2022-11-15T21:57:08;208.43;;;114.47;;
30048;SDS011;16879;50.852;15.602;2022-11-15T21:59:36;238.73;;;128.13;;
30048;SDS011;16879;50.852;15.602;2022-11-15T22:02:22;242.90;;;134.77;;
30048;SDS011;16879;50.852;15.602;2022-11-15T22:04:48;214.00;;;117.35;;
30048;SDS011;16879;50.852;15.602;2022-11-15T22:07:14;216.77;;;119.82;;
30048;SDS011;16879;50.852;15.602;2022-11-15T22:09:40;226.10;;;120.22;;
30048;SDS011;16879;50.852;15.602;2022-11-15T22:12:05;192.48;;;101.88;;
30048;SDS011;16879;50.852;15.602;2022-11-15T22:14:32;151.32;;;85.78;;
30048;SDS011;16879;50.852;15.602;2022-11-15T22:17:01;142.27;;;81.45;;
30048;SDS011;16879;50.852;15.602;2022-11-15T22:19:27;133.55;;;69.32;;
30048;SDS011;16879;50.852;15.602;2022-11-15T22:21:54;128.13;;;69.65;;
30048;SDS011;16879;50.852;15.602;2022-11-15T22:24:30;123.43;;;64.88;;
30048;SDS011;16879;50.852;15.602;2022-11-15T22:27:16;121.78;;;66.35;;
30048;SDS011;16879;50.852;15.602;2022-11-15T22:29:42;97.93;;;54.22;;
30048;SDS011;16879;50.852;15.602;2022-11-15T22:32:08;97.75;;;52.35;;
30048;SDS011;16879;50.852;15.602;2022-11-15T22:34:35;91.07;;;50.63;;
30048;SDS011;16879;50.852;15.602;2022-11-15T22:37:05;90.50;;;49.85;;
30048;SDS011;16879;50.852;15.602;2022-11-15T22:39:34;78.07;;;42.92;;
30048;SDS011;16879;50.852;15.602;2022-11-15T22:42:01;86.13;;;45.10;;
30048;SDS011;16879;50.852;15.602;2022-11-15T22:44:28;98.85;;;44.22;;
30048;SDS011;16879;50.852;15.602;2022-11-15T22:46:54;89.10;;;41.22;;
30048;SDS011;16879;50.852;15.602;2022-11-15T22:49:20;79.85;;;34.70;;
30048;SDS011;16879;50.852;15.602;2022-11-15T22:51:47;88.65;;;37.67;;
30048;SDS011;16879;50.852;15.602;2022-11-15T22:54:13;79.13;;;36.35;;
30048;SDS011;16879;50.852;15.602;2022-11-15T22:56:39;68.10;;;32.28;;
30048;SDS011;16879;50.852;15.602;2022-11-15T22:59:05;61.92;;;28.90;;
30048;SDS011;16879;50.852;15.602;2022-11-15T23:01:30;56.55;;;27.75;;
30048;SDS011;16879;50.852;15.602;2022-11-15T23:03:56;64.28;;;34.33;;
30048;SDS011;16879;50.852;15.602;2022-11-15T23:06:22;59.50;;;29.88;;
30048;SDS011;16879;50.852;15.602;2022-11-15T23:08:48;58.28;;;30.52;;
30048;SDS011;16879;50.852;15.602;2022-11-15T23:11:14;73.85;;;41.85;;
30048;SDS011;16879;50.852;15.602;2022-11-15T23:13:59;92.15;;;46.85;;
30048;SDS011;16879;50.852;15.602;2022-11-15T23:16:25;92.78;;;47.92;;
30048;SDS011;16879;50.852;15.602;2022-11-15T23:18:59;66.88;;;35.63;;
30048;SDS011;16879;50.852;15.602;2022-11-15T23:21:31;65.68;;;37.47;;
30048;SDS011;16879;50.852;15.602;2022-11-15T23:24:16;75.90;;;44.13;;
30048;SDS011;16879;50.852;15.602;2022-11-15T23:26:43;67.15;;;37.45;;
30048;SDS011;16879;50.852;15.602;2022-11-15T23:29:10;72.88;;;39.30;;
30048;SDS011;16879;50.852;15.602;2022-11-15T23:31:37;80.43;;;44.17;;
30048;SDS011;16879;50.852;15.602;2022-11-15T23:34:21;69.03;;;40.92;;
30048;SDS011;16879;50.852;15.602;2022-11-15T23:36:47;71.10;;;42.00;;
30048;SDS011;16879;50.852;15.602;2022-11-15T23:39:14;69.75;;;38.40;;
30048;SDS011;16879;50.852;15.602;2022-11-15T23:41:40;74.90;;;44.10;;
30048;SDS011;16879;50.852;15.602;2022-11-15T23:44:06;72.40;;;38.42;;
30048;SDS011;16879;50.852;15.602;2022-11-15T23:46:32;67.90;;;39.53;;
30048;SDS011;16879;50.852;15.602;2022-11-15T23:48:58;77.43;;;44.10;;
30048;SDS011;16879;50.852;15.602;2022-11-15T23:51:24;77.95;;;45.80;;
30048;SDS011;16879;50.852;15.602;2022-11-15T23:53:50;76.03;;;40.45;;
30048;SDS011;16879;50.852;15.602;2022-11-15T23:56:17;85.68;;;48.60;;
30048;SDS011;16879;50.852;15.602;2022-11-15T23:58:44;105.93;;;57.72;;
